createdAt,value
2022-10-29T00:00:20.015Z,17.48
2022-10-29T00:02:21.599Z,18.13
2022-10-29T00:04:23.101Z,17.20
2022-10-29T00:06:24.908Z,16.60
2022-10-29T00:08:27.275Z,16.77
2022-10-29T00:10:29.765Z,17.50
2022-10-29T00:12:31.315Z,16.90
2022-10-29T00:14:32.903Z,16.63
2022-10-29T00:16:37.678Z,15.75
2022-10-29T00:18:39.594Z,15.77
2022-10-29T00:20:41.038Z,15.77
2022-10-29T00:22:42.504Z,16.48
2022-10-29T00:24:44.040Z,16.60
2022-10-29T00:26:45.800Z,16.30
2022-10-29T00:28:47.884Z,15.82
2022-10-29T00:30:49.442Z,14.27
2022-10-29T00:32:50.940Z,15.27
2022-10-29T00:34:52.395Z,15.27
2022-10-29T00:36:53.906Z,13.65
2022-10-29T00:38:57.116Z,14.70
2022-10-29T00:40:59.278Z,14.75
2022-10-29T00:43:14.767Z,14.57
2022-10-29T00:45:21.318Z,14.60
2022-10-29T00:47:25.525Z,13.30
2022-10-29T00:49:27.555Z,14.30
2022-10-29T00:51:31.045Z,14.43
2022-10-29T00:53:36.734Z,13.57
2022-10-29T00:55:38.212Z,14.93
2022-10-29T00:57:43.966Z,15.23
2022-10-29T01:01:55.947Z,15.15
2022-10-29T01:04:00.195Z,15.52
2022-10-29T01:06:03.253Z,14.95
2022-10-29T01:08:05.647Z,14.95
2022-10-29T01:10:07.744Z,15.27
2022-10-29T01:12:26.298Z,15.63
2022-10-29T01:15:09.879Z,14.52
2022-10-29T01:17:23.295Z,15.13
2022-10-29T01:19:54.507Z,15.90
2022-10-29T01:22:08.237Z,14.95
2022-10-29T01:24:51.275Z,14.20
2022-10-29T01:27:26.648Z,14.82
2022-10-29T01:29:43.129Z,16.15
2022-10-29T01:31:49.726Z,16.90
2022-10-29T01:34:12.194Z,18.02
2022-10-29T01:36:29.219Z,13.80
2022-10-29T01:38:47.911Z,14.30
2022-10-29T01:41:03.477Z,14.05
2022-10-29T01:43:11.808Z,14.25
2022-10-29T01:45:19.304Z,13.38
2022-10-29T01:47:23.548Z,14.20
2022-10-29T01:49:32.771Z,14.57
2022-10-29T01:51:36.512Z,13.68
2022-10-29T01:53:39.369Z,13.27
2022-10-29T01:55:40.908Z,13.60
2022-10-29T01:57:42.407Z,12.98
2022-10-29T01:59:55.502Z,13.55
2022-10-29T02:01:57.661Z,12.90
2022-10-29T02:04:26.403Z,13.55
2022-10-29T02:06:40.636Z,13.75
2022-10-29T02:08:48.021Z,13.88
2022-10-29T02:11:27.830Z,14.07
2022-10-29T02:15:42.399Z,13.43
2022-10-29T02:17:44.441Z,14.00
2022-10-29T02:19:46.012Z,12.93
2022-10-29T02:21:47.477Z,13.98
2022-10-29T02:23:49.031Z,14.48
2022-10-29T02:25:50.630Z,15.20
2022-10-29T02:27:52.309Z,15.40
2022-10-29T02:29:53.791Z,14.20
2022-10-29T02:31:55.259Z,14.13
2022-10-29T02:33:56.783Z,13.85
2022-10-29T02:35:58.437Z,14.77
2022-10-29T02:37:59.907Z,14.93
2022-10-29T02:40:01.701Z,14.10
2022-10-29T02:42:03.358Z,13.52
2022-10-29T02:44:04.891Z,14.02
2022-10-29T02:46:20.127Z,12.77
2022-10-29T02:48:21.588Z,14.32
2022-10-29T02:50:23.071Z,14.55
2022-10-29T02:52:24.670Z,13.63
2022-10-29T02:54:26.146Z,12.63
2022-10-29T02:56:27.619Z,12.27
2022-10-29T02:58:29.170Z,12.65
2022-10-29T03:00:30.599Z,13.38
2022-10-29T03:02:32.176Z,14.35
2022-10-29T03:04:33.838Z,14.13
2022-10-29T03:06:35.346Z,13.52
2022-10-29T03:08:36.791Z,13.35
2022-10-29T03:10:38.260Z,14.75
2022-10-29T03:12:39.726Z,15.07
2022-10-29T03:14:41.370Z,14.95
2022-10-29T03:16:42.971Z,14.55
2022-10-29T03:18:44.598Z,14.43
2022-10-29T03:20:47.529Z,14.00
2022-10-29T03:22:49.023Z,13.85
2022-10-29T03:24:50.472Z,14.13
2022-10-29T03:26:53.098Z,14.38
2022-10-29T03:28:55.782Z,13.95
2022-10-29T03:30:58.225Z,13.75
2022-10-29T03:32:59.772Z,12.88
2022-10-29T03:35:01.307Z,13.45
2022-10-29T03:37:02.788Z,14.55
2022-10-29T03:39:04.327Z,15.10
2022-10-29T03:41:10.387Z,15.07
2022-10-29T03:43:12.002Z,17.73
2022-10-29T03:45:14.290Z,20.73
2022-10-29T03:47:15.727Z,18.67
2022-10-29T03:49:17.174Z,19.05
2022-10-29T03:51:18.713Z,21.98
2022-10-29T03:53:20.161Z,19.55
2022-10-29T03:55:21.675Z,16.88
2022-10-29T03:57:23.848Z,14.52
2022-10-29T03:59:25.323Z,21.52
2022-10-29T04:01:26.917Z,19.42
2022-10-29T04:03:31.147Z,22.83
2022-10-29T04:05:32.612Z,24.55
2022-10-29T04:07:34.129Z,21.48
2022-10-29T04:09:35.630Z,19.15
2022-10-29T04:11:37.079Z,16.02
2022-10-29T04:13:38.546Z,15.88
2022-10-29T04:15:40.414Z,14.02
2022-10-29T04:17:41.924Z,16.10
2022-10-29T04:19:43.466Z,21.83
2022-10-29T04:28:17.577Z,14.68
2022-10-29T04:28:50.863Z,14.30
2022-10-29T04:30:53.142Z,13.77
2022-10-29T04:32:59.345Z,14.27
2022-10-29T04:35:01.175Z,12.88
2022-10-29T04:37:02.680Z,13.80
2022-10-29T04:39:04.537Z,15.15
2022-10-29T04:41:06.063Z,15.30
2022-10-29T04:43:07.524Z,15.63
2022-10-29T04:45:09.434Z,19.10
2022-10-29T04:47:10.929Z,18.30
2022-10-29T04:49:12.559Z,16.52
2022-10-29T04:51:22.040Z,16.00
2022-10-29T04:53:23.715Z,14.75
2022-10-29T04:55:25.644Z,15.57
2022-10-29T04:57:27.097Z,17.67
2022-10-29T04:59:28.560Z,16.77
2022-10-29T05:01:30.409Z,20.23
2022-10-29T05:03:32.583Z,20.17
2022-10-29T05:05:35.899Z,15.43
2022-10-29T05:07:37.351Z,15.95
2022-10-29T05:09:38.803Z,16.67
2022-10-29T05:11:40.262Z,17.35
2022-10-29T05:13:42.083Z,16.88
2022-10-29T05:15:43.547Z,15.38
2022-10-29T05:17:45.009Z,13.05
2022-10-29T05:19:46.471Z,11.52
2022-10-29T05:21:47.985Z,10.93
2022-10-29T05:23:49.439Z,9.98
2022-10-29T05:25:52.382Z,9.63
2022-10-29T05:28:05.975Z,9.18
2022-10-29T05:30:08.482Z,8.77
2022-10-29T05:32:09.953Z,9.50
2022-10-29T05:34:11.445Z,9.38
2022-10-29T05:36:12.931Z,9.70
2022-10-29T05:38:15.131Z,9.98
2022-10-29T05:40:16.703Z,10.25
2022-10-29T05:42:18.176Z,9.18
2022-10-29T05:44:19.650Z,10.95
2022-10-29T05:46:21.163Z,9.93
2022-10-29T05:48:22.722Z,10.48
2022-10-29T05:50:24.450Z,10.45
2022-10-29T05:52:25.906Z,9.45
2022-10-29T05:54:27.380Z,10.45
2022-10-29T05:56:28.888Z,9.65
2022-10-29T05:58:30.383Z,10.48
2022-10-29T06:00:35.190Z,10.75
2022-10-29T06:02:36.714Z,12.30
2022-10-29T06:04:38.254Z,14.80
2022-10-29T06:06:40.002Z,16.20
2022-10-29T06:08:41.576Z,16.13
2022-10-29T06:10:43.431Z,16.05
2022-10-29T06:12:45.016Z,15.25
2022-10-29T06:14:46.453Z,12.45
2022-10-29T06:16:47.909Z,12.60
2022-10-29T06:18:49.410Z,14.35
2022-10-29T06:20:50.847Z,16.55
2022-10-29T06:22:59.374Z,17.70
2022-10-29T06:25:00.964Z,16.63
2022-10-29T06:27:02.407Z,16.23
2022-10-29T06:29:04.211Z,13.93
2022-10-29T06:31:05.679Z,13.57
2022-10-29T06:33:07.825Z,13.75
2022-10-29T06:35:10.946Z,12.80
2022-10-29T06:37:12.467Z,11.13
2022-10-29T06:39:13.973Z,11.10
2022-10-29T06:41:15.650Z,10.70
2022-10-29T06:43:17.158Z,11.13
2022-10-29T06:45:18.732Z,10.85
2022-10-29T06:47:20.211Z,10.48
2022-10-29T06:49:21.903Z,9.80
2022-10-29T06:53:29.810Z,10.05
2022-10-29T06:55:32.899Z,8.95
2022-10-29T06:57:34.541Z,9.38
2022-10-29T06:59:36.007Z,9.23
2022-10-29T07:01:37.480Z,9.18
2022-10-29T07:03:39.010Z,9.98
2022-10-29T07:05:40.690Z,8.63
2022-10-29T07:07:42.225Z,9.30
2022-10-29T07:09:43.843Z,8.07
2022-10-29T07:11:45.303Z,7.78
2022-10-29T07:13:46.871Z,8.45
2022-10-29T07:15:48.671Z,8.13
2022-10-29T07:18:00.288Z,7.05
2022-10-29T07:20:02.448Z,7.03
2022-10-29T07:22:04.005Z,6.88
2022-10-29T07:24:05.811Z,6.88
2022-10-29T07:26:07.332Z,6.30
2022-10-29T07:28:16.196Z,6.45
2022-10-29T07:30:18.015Z,6.88
2022-10-29T07:32:19.686Z,7.10
2022-10-29T07:34:21.139Z,6.45
2022-10-29T07:36:23.538Z,6.40
2022-10-29T07:38:25.985Z,7.88
2022-10-29T07:40:27.857Z,6.88
2022-10-29T07:42:29.370Z,6.30
2022-10-29T07:44:30.819Z,5.20
2022-10-29T07:46:32.285Z,6.13
2022-10-29T07:48:33.928Z,8.35
2022-10-29T07:50:36.888Z,7.70
2022-10-29T07:52:39.867Z,8.35
2022-10-29T07:54:41.334Z,6.35
2022-10-29T07:56:46.668Z,8.32
2022-10-29T07:58:49.330Z,7.25
2022-10-29T08:00:51.084Z,7.47
2022-10-29T08:02:54.859Z,6.88
2022-10-29T08:04:56.340Z,7.07
2022-10-29T08:06:57.792Z,8.48
2022-10-29T08:08:59.351Z,10.88
2022-10-29T08:11:01.771Z,7.00
2022-10-29T08:13:05.926Z,7.18
2022-10-29T08:15:08.303Z,6.47
2022-10-29T08:17:09.800Z,6.40
2022-10-29T08:19:11.290Z,6.88
2022-10-29T08:21:12.825Z,5.63
2022-10-29T08:23:14.876Z,6.22
2022-10-29T08:25:17.855Z,7.97
2022-10-29T08:27:19.331Z,5.75
2022-10-29T08:29:20.776Z,4.78
2022-10-29T08:31:22.336Z,5.60
2022-10-29T08:33:24.165Z,5.50
2022-10-29T08:35:25.961Z,6.13
2022-10-29T08:37:27.976Z,5.18
2022-10-29T08:39:29.427Z,5.30
2022-10-29T08:41:52.483Z,6.03
2022-10-29T08:44:06.035Z,4.22
2022-10-29T08:46:42.465Z,4.40
2022-10-29T08:48:51.096Z,5.95
2022-10-29T08:51:10.790Z,8.10
2022-10-29T08:55:37.170Z,5.35
2022-10-29T08:57:43.833Z,4.38
2022-10-29T09:02:17.035Z,4.30
2022-10-29T09:04:25.387Z,4.18
2022-10-29T09:06:56.156Z,4.13
2022-10-29T09:09:12.899Z,4.25
2022-10-29T09:11:23.577Z,4.53
2022-10-29T09:13:43.989Z,4.20
2022-10-29T09:16:11.887Z,4.28
2022-10-29T09:18:39.016Z,4.95
2022-10-29T09:21:07.737Z,4.47
2022-10-29T09:23:42.212Z,4.93
2022-10-29T09:25:53.711Z,4.47
2022-10-29T09:28:01.105Z,5.22
2022-10-29T09:30:09.591Z,4.85
2022-10-29T09:32:29.867Z,4.82
2022-10-29T09:34:47.844Z,5.70
2022-10-29T09:36:49.385Z,5.60
2022-10-29T09:39:14.203Z,5.10
2022-10-29T09:41:16.312Z,5.45
2022-10-29T09:43:23.919Z,5.07
2022-10-29T09:45:39.959Z,5.40
2022-10-29T09:47:47.604Z,4.95
2022-10-29T09:50:05.398Z,5.05
2022-10-29T09:52:30.755Z,4.80
2022-10-29T09:54:32.955Z,5.38
2022-10-29T09:56:34.651Z,4.75
2022-10-29T09:58:40.125Z,5.00
2022-10-29T10:00:41.819Z,5.10
2022-10-29T10:02:48.576Z,5.30
2022-10-29T10:04:53.224Z,5.15
2022-10-29T10:07:22.526Z,5.30
2022-10-29T10:09:23.971Z,5.00
2022-10-29T10:11:37.834Z,4.80
2022-10-29T10:13:53.040Z,5.00
2022-10-29T10:15:59.947Z,5.28
2022-10-29T10:18:16.390Z,4.45
2022-10-29T10:20:33.416Z,4.93
2022-10-29T10:22:47.285Z,5.60
2022-10-29T10:24:48.815Z,4.88
2022-10-29T10:26:50.299Z,5.28
2022-10-29T10:29:03.853Z,5.40
2022-10-29T10:31:12.314Z,5.20
2022-10-29T10:33:24.740Z,4.85
2022-10-29T10:35:29.451Z,6.63
2022-10-29T10:37:32.910Z,5.22
2022-10-29T10:39:45.747Z,5.45
2022-10-29T10:41:49.960Z,6.55
2022-10-29T10:43:51.704Z,5.68
2022-10-29T10:46:05.188Z,5.45
2022-10-29T10:48:11.206Z,4.85
2022-10-29T10:50:25.005Z,4.53
2022-10-29T10:52:30.767Z,4.30
2022-10-29T10:54:41.950Z,4.63
2022-10-29T10:56:58.751Z,4.70
2022-10-29T10:59:11.085Z,4.97
2022-10-29T11:01:18.991Z,4.95
2022-10-29T11:03:27.789Z,4.35
2022-10-29T11:05:34.137Z,3.78
2022-10-29T11:07:39.012Z,4.20
2022-10-29T11:09:45.239Z,4.30
2022-10-29T11:12:06.124Z,4.43
2022-10-29T11:14:15.830Z,4.40
2022-10-29T11:18:38.764Z,5.00
2022-10-29T11:20:47.440Z,4.53
2022-10-29T11:23:06.228Z,10.73
2022-10-29T11:25:16.686Z,20.70
2022-10-29T11:27:22.279Z,4.95
2022-10-29T11:29:48.981Z,4.85
2022-10-29T11:32:06.238Z,4.47
2022-10-29T11:34:27.091Z,4.80
2022-10-29T11:36:34.568Z,3.88
2022-10-29T11:38:53.905Z,4.18
2022-10-29T11:41:20.389Z,4.00
2022-10-29T11:43:22.086Z,6.78
2022-10-29T11:45:38.471Z,5.32
2022-10-29T11:47:53.330Z,4.75
2022-10-29T11:50:35.389Z,4.03
2022-10-29T11:52:59.200Z,4.22
2022-10-29T11:55:41.580Z,4.13
2022-10-29T11:57:54.144Z,4.68
2022-10-29T12:00:01.748Z,4.50
2022-10-29T12:02:24.350Z,4.32
2022-10-29T12:04:47.479Z,4.50
2022-10-29T12:07:21.900Z,4.28
2022-10-29T12:09:54.502Z,4.43
2022-10-29T12:12:03.803Z,3.92
2022-10-29T12:14:22.250Z,4.45
2022-10-29T12:17:05.804Z,4.00
2022-10-29T12:19:32.275Z,4.25
2022-10-29T12:21:49.335Z,3.70
2022-10-29T12:23:59.854Z,4.28
2022-10-29T12:26:04.387Z,4.60
2022-10-29T12:28:33.087Z,4.13
2022-10-29T12:30:43.610Z,4.10
2022-10-29T12:33:33.491Z,4.68
2022-10-29T12:38:09.999Z,4.47
2022-10-29T12:40:30.898Z,3.77
2022-10-29T12:42:32.813Z,4.88
2022-10-29T12:44:44.095Z,11.40
2022-10-29T12:47:02.006Z,8.63
2022-10-29T12:49:12.493Z,5.43
2022-10-29T12:51:51.369Z,5.22
2022-10-29T12:54:12.806Z,4.38
2022-10-29T12:56:16.524Z,6.63
2022-10-29T12:58:43.404Z,5.65
2022-10-29T13:00:47.855Z,5.93
2022-10-29T13:02:52.090Z,5.90
2022-10-29T13:05:06.076Z,5.57
2022-10-29T13:09:29.221Z,6.93
2022-10-29T13:11:51.474Z,6.75
2022-10-29T13:13:56.427Z,6.18
2022-10-29T13:16:05.879Z,5.60
2022-10-29T13:18:24.299Z,5.57
2022-10-29T13:20:33.106Z,5.63
2022-10-29T13:25:27.439Z,6.53
2022-10-29T13:27:34.288Z,6.23
2022-10-29T13:30:09.694Z,7.03
2022-10-29T13:32:34.670Z,9.15
2022-10-29T13:34:54.871Z,6.75
2022-10-29T13:37:36.121Z,6.78
2022-10-29T13:39:37.603Z,8.05
2022-10-29T13:41:42.349Z,6.75
2022-10-29T13:44:05.376Z,6.57
2022-10-29T13:46:25.881Z,9.10
2022-10-29T13:48:36.923Z,11.57
2022-10-29T13:50:40.127Z,7.88
2022-10-29T13:52:42.022Z,9.82
2022-10-29T13:54:51.238Z,8.63
2022-10-29T13:57:02.846Z,7.85
2022-10-29T13:59:09.704Z,11.02
2022-10-29T14:01:17.306Z,10.32
2022-10-29T14:03:55.940Z,8.50
2022-10-29T14:06:23.285Z,13.77
2022-10-29T14:08:57.244Z,6.13
2022-10-29T14:10:59.605Z,7.65
2022-10-29T14:13:12.342Z,9.27
2022-10-29T14:15:15.061Z,10.02
2022-10-29T14:17:18.727Z,29.38
2022-10-29T14:19:21.710Z,15.35
2022-10-29T14:21:26.592Z,11.77
2022-10-29T14:23:29.757Z,15.27
2022-10-29T14:25:35.714Z,12.00
2022-10-29T14:27:37.510Z,12.43
2022-10-29T14:29:39.474Z,20.95
2022-10-29T14:31:41.004Z,16.73
2022-10-29T14:33:44.343Z,21.58
2022-10-29T14:35:46.738Z,27.35
2022-10-29T14:37:49.162Z,21.52
2022-10-29T14:39:59.643Z,17.13
2022-10-29T14:42:02.072Z,11.25
2022-10-29T14:44:03.554Z,12.63
2022-10-29T14:46:35.750Z,8.50
2022-10-29T14:48:38.831Z,7.88
2022-10-29T14:50:47.865Z,12.35
2022-10-29T14:52:58.265Z,11.13
2022-10-29T14:55:08.424Z,9.50
2022-10-29T14:57:16.914Z,11.35
2022-10-29T14:59:26.549Z,8.50
2022-10-29T15:01:30.812Z,7.72
2022-10-29T15:03:34.618Z,9.80
2022-10-29T15:05:38.980Z,9.10
2022-10-29T15:07:40.442Z,11.68
2022-10-29T15:09:43.199Z,14.18
2022-10-29T15:11:58.891Z,17.33
2022-10-29T15:14:02.359Z,22.00
2022-10-29T15:16:08.287Z,34.80
2022-10-29T15:18:21.866Z,46.63
2022-10-29T15:20:29.318Z,42.33
2022-10-29T15:22:34.865Z,26.67
2022-10-29T15:24:36.503Z,28.40
2022-10-29T15:26:45.996Z,30.17
2022-10-29T15:28:51.145Z,29.17
2022-10-29T15:30:54.237Z,24.23
2022-10-29T15:32:59.612Z,20.25
2022-10-29T15:35:01.285Z,17.48
2022-10-29T15:37:18.140Z,19.95
2022-10-29T15:39:26.965Z,15.60
2022-10-29T15:41:37.849Z,17.50
2022-10-29T15:43:49.654Z,17.95
2022-10-29T15:45:57.932Z,38.67
2022-10-29T15:48:30.532Z,51.88
2022-10-29T15:50:43.007Z,42.88
2022-10-29T15:52:48.450Z,34.10
2022-10-29T15:54:50.178Z,35.47
2022-10-29T15:56:52.197Z,36.83
2022-10-29T15:58:53.718Z,58.97
2022-10-29T16:00:55.555Z,67.05
2022-10-29T16:03:12.098Z,70.25
2022-10-29T16:05:14.157Z,59.22
2022-10-29T16:07:16.727Z,52.90
2022-10-29T16:09:20.229Z,37.35
2022-10-29T16:11:22.316Z,36.90
2022-10-29T16:13:25.691Z,39.25
2022-10-29T16:17:33.540Z,58.70
2022-10-29T16:19:34.976Z,49.45
2022-10-29T16:21:36.767Z,34.10
2022-10-29T16:23:38.607Z,31.27
2022-10-29T16:25:40.875Z,41.75
2022-10-29T16:27:43.963Z,67.82
2022-10-29T16:29:49.674Z,65.70
2022-10-29T16:31:51.219Z,67.20
2022-10-29T16:33:55.172Z,161.55
2022-10-29T16:35:56.688Z,182.57
2022-10-29T16:37:58.391Z,159.93
2022-10-29T16:39:59.851Z,125.60
2022-10-29T16:42:01.371Z,89.40
2022-10-29T16:44:02.852Z,103.03
2022-10-29T16:46:05.643Z,73.57
2022-10-29T16:48:07.294Z,45.42
2022-10-29T16:50:14.346Z,53.60
2022-10-29T16:52:19.067Z,46.25
2022-10-29T16:54:24.726Z,59.60
2022-10-29T16:56:26.190Z,50.47
2022-10-29T16:58:27.672Z,60.90
2022-10-29T17:00:33.148Z,47.00
2022-10-29T17:02:34.624Z,43.55
2022-10-29T17:04:36.164Z,47.10
2022-10-29T17:06:37.932Z,66.40
2022-10-29T17:08:39.439Z,176.52
2022-10-29T17:10:41.420Z,284.50
2022-10-29T17:12:42.872Z,319.73
2022-10-29T17:14:44.394Z,40.40
2022-10-29T17:16:46.171Z,59.03
2022-10-29T17:18:50.766Z,68.90
2022-10-29T17:20:59.992Z,53.45
2022-10-29T17:23:01.454Z,46.92
2022-10-29T17:25:02.937Z,46.55
2022-10-29T17:27:04.483Z,40.30
2022-10-29T17:29:06.010Z,35.20
2022-10-29T17:31:09.538Z,44.08
2022-10-29T17:33:12.970Z,69.10
2022-10-29T17:35:14.496Z,78.20
2022-10-29T17:37:16.026Z,106.50
2022-10-29T17:39:17.489Z,89.93
2022-10-29T17:41:19.101Z,48.30
2022-10-29T17:43:20.572Z,46.78
2022-10-29T17:45:23.693Z,51.47
2022-10-29T17:47:25.167Z,31.75
2022-10-29T17:49:26.894Z,52.08
2022-10-29T17:51:28.845Z,87.78
2022-10-29T17:53:31.470Z,41.42
2022-10-29T17:55:32.976Z,53.08
2022-10-29T17:57:34.439Z,75.90
2022-10-29T17:59:35.898Z,98.57
2022-10-29T18:01:37.499Z,75.65
2022-10-29T18:03:39.182Z,32.97
2022-10-29T18:05:40.927Z,39.28
2022-10-29T18:07:42.370Z,63.38
2022-10-29T18:09:43.831Z,54.78
2022-10-29T18:11:45.307Z,43.20
2022-10-29T18:13:48.291Z,55.50
2022-10-29T18:15:49.762Z,50.78
2022-10-29T18:19:57.802Z,39.83
2022-10-29T18:21:59.279Z,51.85
2022-10-29T18:24:00.896Z,59.05
2022-10-29T18:26:05.068Z,39.85
2022-10-29T18:28:06.668Z,39.20
2022-10-29T18:30:08.860Z,33.28
2022-10-29T18:32:10.286Z,49.40
2022-10-29T18:34:14.740Z,38.80
2022-10-29T18:36:16.363Z,50.03
2022-10-29T18:38:17.867Z,57.72
2022-10-29T18:40:19.321Z,52.95
2022-10-29T18:42:20.785Z,57.90
2022-10-29T18:44:22.302Z,62.75
2022-10-29T18:46:23.978Z,45.20
2022-10-29T18:48:27.083Z,31.95
2022-10-29T18:50:28.659Z,32.65
2022-10-29T18:52:30.260Z,43.90
2022-10-29T18:54:31.881Z,44.35
2022-10-29T18:56:33.455Z,37.28
2022-10-29T18:58:35.033Z,39.10
2022-10-29T19:00:36.572Z,39.75
2022-10-29T19:02:39.265Z,40.15
2022-10-29T19:04:40.791Z,38.58
2022-10-29T19:06:42.872Z,38.03
2022-10-29T19:08:44.402Z,38.80
2022-10-29T19:10:45.887Z,41.13
2022-10-29T19:12:47.332Z,46.85
2022-10-29T19:14:48.855Z,50.17
2022-10-29T19:16:50.410Z,49.38
2022-10-29T19:18:57.385Z,47.55
2022-10-29T19:21:06.958Z,40.72
2022-10-29T19:23:08.448Z,34.28
2022-10-29T19:25:09.916Z,34.10
2022-10-29T19:27:11.372Z,28.08
2022-10-29T19:29:13.727Z,27.75
2022-10-29T19:31:17.838Z,30.02
2022-10-29T19:33:19.294Z,34.72
2022-10-29T19:35:20.805Z,48.90
2022-10-29T19:37:22.286Z,39.03
2022-10-29T19:39:23.968Z,36.33
2022-10-29T19:41:26.347Z,29.42
2022-10-29T19:43:30.929Z,30.13
2022-10-29T19:45:32.399Z,29.85
2022-10-29T19:47:34.556Z,28.45
2022-10-29T19:49:36.020Z,40.70
2022-10-29T19:51:37.480Z,33.13
2022-10-29T19:53:39.139Z,36.22
2022-10-29T19:55:41.246Z,42.03
2022-10-29T19:57:42.691Z,38.00
2022-10-29T19:59:44.139Z,39.40
2022-10-29T20:01:48.372Z,41.85
2022-10-29T20:03:50.092Z,42.22
2022-10-29T20:05:55.134Z,37.83
2022-10-29T20:07:56.972Z,39.53
2022-10-29T20:09:58.678Z,35.58
2022-10-29T20:12:00.117Z,35.42
2022-10-29T20:14:01.883Z,36.00
2022-10-29T20:16:11.741Z,36.35
2022-10-29T20:20:17.307Z,31.15
2022-10-29T20:22:18.899Z,51.03
2022-10-29T20:24:20.946Z,59.88
2022-10-29T20:26:22.896Z,42.33
2022-10-29T20:28:24.648Z,33.13
2022-10-29T20:30:26.114Z,35.88
2022-10-29T20:32:27.546Z,32.40
2022-10-29T20:34:29.032Z,33.88
2022-10-29T20:36:32.387Z,36.10
2022-10-29T20:38:34.183Z,32.72
2022-10-29T20:40:35.820Z,37.17
2022-10-29T20:42:37.322Z,32.47
2022-10-29T20:44:38.751Z,32.70
2022-10-29T20:46:43.411Z,29.67
2022-10-29T20:48:45.046Z,32.22
2022-10-29T20:50:52.708Z,37.38
2022-10-29T20:52:54.201Z,30.13
2022-10-29T20:54:55.715Z,42.05
2022-10-29T20:56:57.199Z,32.13
2022-10-29T20:58:58.697Z,32.78
2022-10-29T21:01:14.884Z,28.70
2022-10-29T21:03:17.674Z,32.90
2022-10-29T21:05:19.115Z,30.83
2022-10-29T21:07:20.577Z,30.75
2022-10-29T21:09:22.857Z,28.13
2022-10-29T21:11:24.612Z,30.15
2022-10-29T21:13:26.195Z,29.15
2022-10-29T21:15:27.817Z,34.25
2022-10-29T21:17:29.278Z,48.70
2022-10-29T21:19:30.787Z,50.00
2022-10-29T21:21:33.033Z,41.30
2022-10-29T21:23:37.148Z,41.35
2022-10-29T21:25:38.799Z,42.25
2022-10-29T21:27:40.227Z,41.15
2022-10-29T21:29:41.686Z,40.05
2022-10-29T21:31:43.145Z,33.85
2022-10-29T21:33:44.754Z,36.75
2022-10-29T21:35:54.383Z,34.90
2022-10-29T21:37:56.230Z,36.28
2022-10-29T21:40:00.233Z,32.78
2022-10-29T21:42:05.000Z,35.17
2022-10-29T21:44:06.508Z,31.23
2022-10-29T21:46:08.174Z,32.00
2022-10-29T21:48:10.212Z,32.13
2022-10-29T21:50:11.921Z,31.05
2022-10-29T21:52:13.388Z,33.22
2022-10-29T21:54:14.850Z,36.42
2022-10-29T21:56:16.376Z,34.78
2022-10-29T21:58:17.939Z,33.28
2022-10-29T22:00:19.653Z,33.58
2022-10-29T22:02:21.277Z,33.00
2022-10-29T22:04:22.817Z,33.70
2022-10-29T22:06:25.858Z,34.80
2022-10-29T22:08:27.553Z,35.33
2022-10-29T22:10:29.182Z,37.30
2022-10-29T22:12:31.021Z,35.55
2022-10-29T22:14:32.504Z,37.40
2022-10-29T22:16:34.003Z,38.72
2022-10-29T22:18:36.628Z,37.53
2022-10-29T22:20:38.136Z,38.28
2022-10-29T22:22:39.715Z,37.55
2022-10-29T22:24:41.268Z,38.05
2022-10-29T22:26:42.804Z,37.53
2022-10-29T22:28:45.235Z,40.60
2022-10-29T22:30:46.711Z,44.88
2022-10-29T22:32:48.220Z,40.80
2022-10-29T22:34:49.681Z,37.72
2022-10-29T22:36:51.754Z,39.42
2022-10-29T22:38:54.542Z,38.15
2022-10-29T22:40:56.051Z,39.47
2022-10-29T22:42:57.709Z,40.33
2022-10-29T22:44:59.354Z,41.08
2022-10-29T22:47:00.917Z,41.03
2022-10-29T22:49:02.644Z,40.85
2022-10-29T22:51:12.599Z,42.55
2022-10-29T22:55:15.832Z,42.00
2022-10-29T22:57:17.293Z,42.10
2022-10-29T22:59:18.802Z,43.03
2022-10-29T23:01:23.080Z,45.25
2022-10-29T23:03:24.688Z,44.78
2022-10-29T23:05:26.180Z,42.75
2022-10-29T23:07:27.777Z,42.13
2022-10-29T23:09:29.280Z,43.10
2022-10-29T23:11:32.208Z,42.75
2022-10-29T23:13:33.951Z,44.75
2022-10-29T23:15:35.436Z,43.63
2022-10-29T23:17:36.883Z,40.55
2022-10-29T23:19:38.302Z,41.70
2022-10-29T23:21:39.776Z,44.22
2022-10-29T23:23:41.411Z,48.25
2022-10-29T23:25:43.069Z,43.95
2022-10-29T23:27:44.544Z,43.65
2022-10-29T23:29:46.010Z,43.78
2022-10-29T23:31:47.540Z,43.65
2022-10-29T23:33:51.972Z,42.95
2022-10-29T23:35:53.464Z,45.38
2022-10-29T23:37:55.345Z,45.95
2022-10-29T23:39:57.034Z,49.15
2022-10-29T23:41:58.533Z,48.17
2022-10-29T23:43:59.979Z,45.08
2022-10-29T23:46:01.739Z,46.65
2022-10-29T23:48:03.378Z,49.13
2022-10-29T23:50:05.179Z,50.20
2022-10-29T23:52:06.608Z,52.10
2022-10-29T23:54:08.071Z,50.05
2022-10-29T23:56:09.607Z,52.05
2022-10-29T23:58:11.807Z,51.20
